createdAt,value
2019-04-01T00:01:07.882Z,20.92
2019-04-01T00:02:12.953Z,21.02
2019-04-01T00:03:16.461Z,20.90
2019-04-01T00:04:19.908Z,20.40
2019-04-01T00:05:23.423Z,22.52
2019-04-01T00:06:26.953Z,21.00
2019-04-01T00:07:30.569Z,21.40
2019-04-01T00:08:34.005Z,21.35
2019-04-01T00:09:37.511Z,20.52
2019-04-01T00:10:41.044Z,20.88
2019-04-01T00:11:44.501Z,20.30
2019-04-01T00:12:48.012Z,22.37
2019-04-01T00:13:51.455Z,21.25
2019-04-01T00:14:54.959Z,20.02
2019-04-01T00:15:58.432Z,21.52
2019-04-01T00:17:01.878Z,21.45
2019-04-01T00:18:05.443Z,21.90
2019-04-01T00:19:08.888Z,20.85
2019-04-01T00:20:12.467Z,22.05
2019-04-01T00:21:15.916Z,22.52
2019-04-01T00:22:19.357Z,20.90
2019-04-01T00:23:22.809Z,20.20
2019-04-01T00:24:26.243Z,20.88
2019-04-01T00:25:29.731Z,20.65
2019-04-01T00:26:33.232Z,20.35
2019-04-01T00:27:36.676Z,20.75
2019-04-01T00:28:40.114Z,21.87
2019-04-01T00:29:43.628Z,19.45
2019-04-01T00:30:47.068Z,19.90
2019-04-01T00:31:50.621Z,19.50
2019-04-01T00:32:54.059Z,19.90
2019-04-01T00:33:57.491Z,21.87
2019-04-01T00:35:00.923Z,20.17
2019-04-01T00:36:04.429Z,19.90
2019-04-01T00:37:07.879Z,19.15
2019-04-01T00:38:11.311Z,19.30
2019-04-01T00:39:14.747Z,19.77
2019-04-01T00:40:19.557Z,18.25
2019-04-01T00:41:23.057Z,20.55
2019-04-01T00:42:28.152Z,20.40
2019-04-01T00:43:51.170Z,18.70
2019-04-01T00:44:54.675Z,18.35
2019-04-01T00:45:59.060Z,18.60
2019-04-01T00:47:02.509Z,20.48
2019-04-01T00:48:05.961Z,19.00
2019-04-01T00:49:09.399Z,19.75
2019-04-01T00:50:12.916Z,19.52
2019-04-01T00:51:16.438Z,19.67
2019-04-01T00:52:19.944Z,20.10
2019-04-01T00:53:23.397Z,18.90
2019-04-01T00:54:26.849Z,18.67
2019-04-01T00:55:30.277Z,19.02
2019-04-01T00:56:33.712Z,18.60
2019-04-01T00:57:37.172Z,19.07
2019-04-01T00:58:40.640Z,19.17
2019-04-01T00:59:44.144Z,20.30
2019-04-01T01:00:47.585Z,19.00
2019-04-01T01:01:51.022Z,18.92
2019-04-01T01:02:54.477Z,19.30
2019-04-01T01:03:57.906Z,19.85
2019-04-01T01:05:01.346Z,19.50
2019-04-01T01:06:04.823Z,19.57
2019-04-01T01:07:08.262Z,20.50
2019-04-01T01:08:11.718Z,19.87
2019-04-01T01:09:15.189Z,18.70
2019-04-01T01:10:18.754Z,18.80
2019-04-01T01:11:22.260Z,19.05
2019-04-01T01:12:25.691Z,19.52
2019-04-01T01:13:29.177Z,20.45
2019-04-01T01:14:32.607Z,19.85
2019-04-01T01:15:36.171Z,19.75
2019-04-01T01:16:39.687Z,19.02
2019-04-01T01:17:43.200Z,18.40
2019-04-01T01:18:46.659Z,18.65
2019-04-01T01:19:50.101Z,18.48
2019-04-01T01:20:53.534Z,19.17
2019-04-01T01:21:56.968Z,21.40
2019-04-01T01:23:00.427Z,20.00
2019-04-01T01:24:03.957Z,19.25
2019-04-01T01:25:07.651Z,18.90
2019-04-01T01:26:11.148Z,21.62
2019-04-01T01:27:14.580Z,19.17
2019-04-01T01:28:18.115Z,20.32
2019-04-01T01:29:21.570Z,22.00
2019-04-01T01:30:24.998Z,21.85
2019-04-01T01:31:28.434Z,21.30
2019-04-01T01:32:31.940Z,21.62
2019-04-01T01:33:35.374Z,21.95
2019-04-01T01:34:38.897Z,20.75
2019-04-01T01:35:42.371Z,21.90
2019-04-01T01:36:45.810Z,21.48
2019-04-01T01:37:49.311Z,20.62
2019-04-01T01:38:52.749Z,22.17
2019-04-01T01:39:57.207Z,20.82
2019-04-01T01:41:00.735Z,20.77
2019-04-01T01:42:04.177Z,22.05
2019-04-01T01:43:07.614Z,22.07
2019-04-01T01:44:11.115Z,21.68
2019-04-01T01:45:14.643Z,21.52
2019-04-01T01:46:18.093Z,22.20
2019-04-01T01:47:21.527Z,22.55
2019-04-01T01:48:24.978Z,21.70
2019-04-01T01:49:28.399Z,22.85
2019-04-01T01:50:31.860Z,22.30
2019-04-01T01:51:35.304Z,23.40
2019-04-01T01:52:38.802Z,23.57
2019-04-01T01:53:42.237Z,21.52
2019-04-01T01:54:45.670Z,21.75
2019-04-01T01:55:49.123Z,24.10
2019-04-01T01:56:52.568Z,23.62
2019-04-01T01:57:56.172Z,23.50
2019-04-01T01:58:59.608Z,23.55
2019-04-01T02:00:03.246Z,22.35
2019-04-01T02:01:06.701Z,22.32
2019-04-01T02:02:10.205Z,22.15
2019-04-01T02:03:13.635Z,23.07
2019-04-01T02:04:17.073Z,23.75
2019-04-01T02:05:20.503Z,22.90
2019-04-01T02:06:23.966Z,22.98
2019-04-01T02:07:27.439Z,24.12
2019-04-01T02:08:30.876Z,23.52
2019-04-01T02:09:34.316Z,23.90
2019-04-01T02:10:37.754Z,23.95
2019-04-01T02:11:41.291Z,23.00
2019-04-01T02:12:44.726Z,24.52
2019-04-01T02:13:48.237Z,25.05
2019-04-01T02:14:51.746Z,22.35
2019-04-01T02:15:55.243Z,24.87
2019-04-01T02:16:58.695Z,23.30
2019-04-01T02:18:02.381Z,22.85
2019-04-01T02:19:05.822Z,24.63
2019-04-01T02:20:09.392Z,22.87
2019-04-01T02:21:12.827Z,23.45
2019-04-01T02:22:16.368Z,24.12
2019-04-01T02:23:19.875Z,24.50
2019-04-01T02:24:23.312Z,24.35
2019-04-01T02:25:26.821Z,24.82
2019-04-01T02:26:30.266Z,25.92
2019-04-01T02:27:33.722Z,24.82
2019-04-01T02:28:37.218Z,24.77
2019-04-01T02:29:40.731Z,25.15
2019-04-01T02:30:44.165Z,26.12
2019-04-01T02:31:47.602Z,26.52
2019-04-01T02:32:51.060Z,25.55
2019-04-01T02:33:54.500Z,26.95
2019-04-01T02:34:57.945Z,25.68
2019-04-01T02:36:01.377Z,25.45
2019-04-01T02:37:04.809Z,26.50
2019-04-01T02:38:08.408Z,25.48
2019-04-01T02:39:11.919Z,25.90
2019-04-01T02:40:15.354Z,25.25
2019-04-01T02:41:18.786Z,27.85
2019-04-01T02:42:22.516Z,27.02
2019-04-01T02:43:25.970Z,27.13
2019-04-01T02:44:29.441Z,27.17
2019-04-01T02:45:32.882Z,25.85
2019-04-01T02:46:36.388Z,28.05
2019-04-01T02:47:39.827Z,27.30
2019-04-01T02:48:43.289Z,28.25
2019-04-01T02:49:46.724Z,27.10
2019-04-01T02:50:50.167Z,27.15
2019-04-01T02:51:53.664Z,29.12
2019-04-01T02:52:57.222Z,28.65
2019-04-01T02:54:00.643Z,29.10
2019-04-01T02:55:06.776Z,27.95
2019-04-01T02:56:10.731Z,28.20
2019-04-01T02:57:14.175Z,28.80
2019-04-01T02:58:17.605Z,29.27
2019-04-01T02:59:21.160Z,27.80
2019-04-01T03:00:24.731Z,29.12
2019-04-01T03:01:28.315Z,28.80
2019-04-01T03:02:31.746Z,30.35
2019-04-01T03:03:35.209Z,28.83
2019-04-01T03:04:38.649Z,28.02
2019-04-01T03:05:42.112Z,30.65
2019-04-01T03:06:45.587Z,29.12
2019-04-01T03:07:49.056Z,30.35
2019-04-01T03:08:52.529Z,29.65
2019-04-01T03:09:55.971Z,28.40
2019-04-01T03:10:59.414Z,30.68
2019-04-01T03:12:02.833Z,29.40
2019-04-01T03:13:06.334Z,30.60
2019-04-01T03:14:09.863Z,31.55
2019-04-01T03:15:13.454Z,32.30
2019-04-01T03:16:16.922Z,30.05
2019-04-01T03:17:20.355Z,31.48
2019-04-01T03:18:23.795Z,32.00
2019-04-01T03:19:27.250Z,31.35
2019-04-01T03:20:30.713Z,32.50
2019-04-01T03:21:34.215Z,30.75
2019-04-01T03:22:37.648Z,32.25
2019-04-01T03:23:41.149Z,32.83
2019-04-01T03:24:44.666Z,32.38
2019-04-01T03:25:48.322Z,34.50
2019-04-01T03:26:51.718Z,32.95
2019-04-01T03:27:55.158Z,33.45
2019-04-01T03:28:58.598Z,33.98
2019-04-01T03:30:02.127Z,35.55
2019-04-01T03:31:05.562Z,33.02
2019-04-01T03:32:09.090Z,34.75
2019-04-01T03:33:12.503Z,35.83
2019-04-01T03:34:15.933Z,34.50
2019-04-01T03:35:19.464Z,34.67
2019-04-01T03:36:23.003Z,36.35
2019-04-01T03:37:26.431Z,35.80
2019-04-01T03:38:29.866Z,36.33
2019-04-01T03:39:33.359Z,34.88
2019-04-01T03:40:36.968Z,35.03
2019-04-01T03:41:40.416Z,36.68
2019-04-01T03:42:43.840Z,35.28
2019-04-01T03:43:47.303Z,35.73
2019-04-01T03:44:54.872Z,36.28
2019-04-01T03:45:55.869Z,38.30
2019-04-01T03:46:59.302Z,39.08
2019-04-01T03:48:02.734Z,37.13
2019-04-01T03:49:06.171Z,38.85
2019-04-01T03:50:09.748Z,35.63
2019-04-01T03:51:13.204Z,38.20
2019-04-01T03:52:16.649Z,37.63
2019-04-01T03:53:20.163Z,39.03
2019-04-01T03:54:23.599Z,37.78
2019-04-01T03:55:27.028Z,37.50
2019-04-01T03:56:30.485Z,39.13
2019-04-01T03:57:33.922Z,38.30
2019-04-01T03:58:37.350Z,38.28
2019-04-01T03:59:40.783Z,38.38
2019-04-01T04:00:44.208Z,38.78
2019-04-01T04:01:47.742Z,37.90
2019-04-01T04:02:51.194Z,38.98
2019-04-01T04:03:54.618Z,39.25
2019-04-01T04:04:58.166Z,40.60
2019-04-01T04:06:01.667Z,38.85
2019-04-01T04:07:05.254Z,39.85
2019-04-01T04:08:08.687Z,40.43
2019-04-01T04:09:12.240Z,41.83
2019-04-01T04:10:15.765Z,40.65
2019-04-01T04:11:19.273Z,41.45
2019-04-01T04:12:22.720Z,41.00
2019-04-01T04:13:26.157Z,38.15
2019-04-01T04:14:29.590Z,41.73
2019-04-01T04:15:33.101Z,37.93
2019-04-01T04:16:36.596Z,41.70
2019-04-01T04:17:40.073Z,42.80
2019-04-01T04:18:43.521Z,40.78
2019-04-01T04:19:46.947Z,41.55
2019-04-01T04:20:50.382Z,43.90
2019-04-01T04:21:53.847Z,41.10
2019-04-01T04:22:57.288Z,41.95
2019-04-01T04:24:00.790Z,40.12
2019-04-01T04:25:05.768Z,40.70
2019-04-01T04:26:09.326Z,41.30
2019-04-01T04:27:12.769Z,40.20
2019-04-01T04:28:16.274Z,41.58
2019-04-01T04:29:19.719Z,42.58
2019-04-01T04:30:23.224Z,40.00
2019-04-01T04:31:26.658Z,40.00
2019-04-01T04:32:30.121Z,43.40
2019-04-01T04:33:33.547Z,42.10
2019-04-01T04:34:36.976Z,42.67
2019-04-01T04:35:40.790Z,44.63
2019-04-01T04:36:44.290Z,43.78
2019-04-01T04:37:47.812Z,42.85
2019-04-01T04:38:51.264Z,42.73
2019-04-01T04:39:54.690Z,42.62
2019-04-01T04:40:58.135Z,43.05
2019-04-01T04:42:01.713Z,42.20
2019-04-01T04:43:05.312Z,43.13
2019-04-01T04:44:08.746Z,42.98
2019-04-01T04:45:12.252Z,44.53
2019-04-01T04:46:15.855Z,44.03
2019-04-01T04:47:19.280Z,43.15
2019-04-01T04:48:22.728Z,42.60
2019-04-01T04:49:26.226Z,44.38
2019-04-01T04:50:29.725Z,41.28
2019-04-01T04:51:33.167Z,43.63
2019-04-01T04:52:36.598Z,41.35
2019-04-01T04:53:40.060Z,43.45
2019-04-01T04:54:43.493Z,42.40
2019-04-01T04:55:46.925Z,42.55
2019-04-01T04:56:50.353Z,43.87
2019-04-01T04:57:53.813Z,42.95
2019-04-01T04:58:57.266Z,43.65
2019-04-01T05:00:00.971Z,45.90
2019-04-01T05:01:04.531Z,43.55
2019-04-01T05:02:08.117Z,42.45
2019-04-01T05:03:11.619Z,44.93
2019-04-01T05:04:15.076Z,44.63
2019-04-01T05:05:18.574Z,44.55
2019-04-01T05:06:22.009Z,44.75
2019-04-01T05:07:27.122Z,42.43
2019-04-01T05:08:30.553Z,45.12
2019-04-01T05:09:34.004Z,41.70
2019-04-01T05:10:37.502Z,41.13
2019-04-01T05:11:40.951Z,43.30
2019-04-01T05:12:44.364Z,43.15
2019-04-01T05:13:47.838Z,43.70
2019-04-01T05:14:51.324Z,42.75
2019-04-01T05:15:54.829Z,41.68
2019-04-01T05:16:58.276Z,42.08
2019-04-01T05:18:01.856Z,40.98
2019-04-01T05:19:05.428Z,41.75
2019-04-01T05:20:09.235Z,41.60
2019-04-01T05:21:14.667Z,39.48
2019-04-01T05:22:19.973Z,42.85
2019-04-01T05:23:24.993Z,41.83
2019-04-01T05:24:28.963Z,41.28
2019-04-01T05:25:32.762Z,41.08
2019-04-01T05:26:37.238Z,40.35
2019-04-01T05:27:42.273Z,41.45
2019-04-01T05:28:46.737Z,40.90
2019-04-01T05:29:53.225Z,40.90
2019-04-01T05:30:58.290Z,42.03
2019-04-01T05:32:03.902Z,41.75
2019-04-01T05:33:10.476Z,42.17
2019-04-01T05:34:17.357Z,41.88
2019-04-01T05:35:20.801Z,41.35
2019-04-01T05:36:25.394Z,41.80
2019-04-01T05:37:28.971Z,41.25
2019-04-01T05:38:33.053Z,39.35
2019-04-01T05:39:36.550Z,42.93
2019-04-01T05:40:40.051Z,41.63
2019-04-01T05:41:43.568Z,39.95
2019-04-01T05:42:47.164Z,43.17
2019-04-01T05:43:50.878Z,42.98
2019-04-01T05:44:54.459Z,43.02
2019-04-01T05:45:57.958Z,42.10
2019-04-01T05:47:01.554Z,48.25
2019-04-01T05:48:05.131Z,47.00
2019-04-01T05:49:08.699Z,47.30
2019-04-01T05:50:12.211Z,42.10
2019-04-01T05:51:15.708Z,43.15
2019-04-01T05:52:19.302Z,41.40
2019-04-01T05:53:22.807Z,43.68
2019-04-01T05:54:26.382Z,43.40
2019-04-01T05:55:30.558Z,42.88
2019-04-01T05:56:34.065Z,47.70
2019-04-01T05:57:37.583Z,41.15
2019-04-01T05:58:41.083Z,43.80
2019-04-01T05:59:44.585Z,43.35
2019-04-01T06:00:50.334Z,43.80
2019-04-01T06:01:53.827Z,42.05
2019-04-01T06:02:57.349Z,40.20
2019-04-01T06:04:00.847Z,43.30
2019-04-01T06:05:06.616Z,42.93
2019-04-01T06:06:10.185Z,41.92
2019-04-01T06:07:13.684Z,42.65
2019-04-01T06:08:17.785Z,40.83
2019-04-01T06:09:22.152Z,42.33
2019-04-01T06:10:25.673Z,43.10
2019-04-01T06:11:29.106Z,40.17
2019-04-01T06:12:32.702Z,40.35
2019-04-01T06:13:36.417Z,41.05
2019-04-01T06:14:39.987Z,40.52
2019-04-01T06:15:43.416Z,42.75
2019-04-01T06:16:46.916Z,42.23
2019-04-01T06:17:50.463Z,41.60
2019-04-01T06:18:53.894Z,44.93
2019-04-01T06:19:57.535Z,42.38
2019-04-01T06:21:01.741Z,43.45
2019-04-01T06:22:05.310Z,43.35
2019-04-01T06:23:08.910Z,45.58
2019-04-01T06:24:12.478Z,46.05
2019-04-01T06:25:15.911Z,44.03
2019-04-01T06:26:19.480Z,44.20
2019-04-01T06:27:23.526Z,43.33
2019-04-01T06:28:27.744Z,43.38
2019-04-01T06:29:31.268Z,42.93
2019-04-01T06:30:34.762Z,42.23
2019-04-01T06:31:38.266Z,44.27
2019-04-01T06:32:41.766Z,43.20
2019-04-01T06:33:45.288Z,44.30
2019-04-01T06:34:53.079Z,42.80
2019-04-01T06:35:54.149Z,41.05
2019-04-01T06:36:57.658Z,40.65
2019-04-01T06:38:01.159Z,42.95
2019-04-01T06:39:06.514Z,41.35
2019-04-01T06:40:10.182Z,42.48
2019-04-01T06:41:13.687Z,43.90
2019-04-01T06:42:17.251Z,40.25
2019-04-01T06:43:20.757Z,44.85
2019-04-01T06:44:24.367Z,42.03
2019-04-01T06:45:27.793Z,41.80
2019-04-01T06:46:31.293Z,40.20
2019-04-01T06:47:34.876Z,42.70
2019-04-01T06:48:38.450Z,42.85
2019-04-01T06:49:41.979Z,40.63
2019-04-01T06:50:45.549Z,42.08
2019-04-01T06:51:49.067Z,42.83
2019-04-01T06:52:52.631Z,43.38
2019-04-01T06:53:56.136Z,43.15
2019-04-01T06:54:59.714Z,45.28
2019-04-01T06:56:03.282Z,40.50
2019-04-01T06:57:06.803Z,42.25
2019-04-01T06:58:11.907Z,41.85
2019-04-01T06:59:15.620Z,43.87
2019-04-01T07:00:19.222Z,42.85
2019-04-01T07:01:22.654Z,43.75
2019-04-01T07:02:26.234Z,41.83
2019-04-01T07:03:30.128Z,43.23
2019-04-01T07:04:33.630Z,41.53
2019-04-01T07:05:37.324Z,42.20
2019-04-01T07:06:40.825Z,57.95
2019-04-01T07:07:44.328Z,42.38
2019-04-01T07:08:47.901Z,45.48
2019-04-01T07:09:51.541Z,47.40
2019-04-01T07:10:55.075Z,62.30
2019-04-01T07:11:58.721Z,57.62
2019-04-01T07:13:02.285Z,43.95
2019-04-01T07:14:06.058Z,42.80
2019-04-01T07:15:09.819Z,44.55
2019-04-01T07:16:15.641Z,43.95
2019-04-01T07:17:18.639Z,41.30
2019-04-01T07:18:22.150Z,42.78
2019-04-01T07:19:25.932Z,42.15
2019-04-01T07:20:29.430Z,43.20
2019-04-01T07:21:33.471Z,43.87
2019-04-01T07:22:36.979Z,42.45
2019-04-01T07:23:40.498Z,40.65
2019-04-01T07:24:44.000Z,43.30
2019-04-01T07:25:47.448Z,42.38
2019-04-01T07:26:51.068Z,44.10
2019-04-01T07:27:54.518Z,41.75
2019-04-01T07:28:58.018Z,43.48
2019-04-01T07:30:01.517Z,41.73
2019-04-01T07:31:05.109Z,42.85
2019-04-01T07:32:08.799Z,43.98
2019-04-01T07:33:12.370Z,43.48
2019-04-01T07:34:15.891Z,42.40
2019-04-01T07:35:19.460Z,44.20
2019-04-01T07:36:23.137Z,43.33
2019-04-01T07:37:26.650Z,44.48
2019-04-01T07:38:30.143Z,45.30
2019-04-01T07:39:33.652Z,43.08
2019-04-01T07:40:37.518Z,43.20
2019-04-01T07:41:41.051Z,42.98
2019-04-01T07:42:44.748Z,42.78
2019-04-01T07:43:48.185Z,41.68
2019-04-01T07:44:51.692Z,42.08
2019-04-01T07:45:55.202Z,44.05
2019-04-01T07:46:58.928Z,41.92
2019-04-01T07:48:02.454Z,42.53
2019-04-01T07:49:05.965Z,44.90
2019-04-01T07:50:12.293Z,40.63
2019-04-01T07:51:15.241Z,41.35
2019-04-01T07:52:18.828Z,44.27
2019-04-01T07:53:22.327Z,42.55
2019-04-01T07:54:25.840Z,44.33
2019-04-01T07:55:29.734Z,42.62
2019-04-01T07:56:33.286Z,41.58
2019-04-01T07:57:36.819Z,41.68
2019-04-01T07:58:40.326Z,43.25
2019-04-01T07:59:43.832Z,40.92
2019-04-01T08:00:47.593Z,42.38
2019-04-01T08:01:52.806Z,43.75
2019-04-01T08:02:56.421Z,41.98
2019-04-01T08:03:59.936Z,42.43
2019-04-01T08:05:03.539Z,41.50
2019-04-01T08:06:07.148Z,41.55
2019-04-01T08:07:13.307Z,43.55
2019-04-01T08:08:16.939Z,43.45
2019-04-01T08:09:20.443Z,45.95
2019-04-01T08:10:24.024Z,45.05
2019-04-01T08:11:27.458Z,40.38
2019-04-01T08:12:31.021Z,40.83
2019-04-01T08:13:34.689Z,40.25
2019-04-01T08:14:38.141Z,41.60
2019-04-01T08:15:41.654Z,42.50
2019-04-01T08:16:45.153Z,42.10
2019-04-01T08:17:48.668Z,41.02
2019-04-01T08:18:52.200Z,42.48
2019-04-01T08:19:55.778Z,41.18
2019-04-01T08:20:59.449Z,44.58
2019-04-01T08:22:03.096Z,43.23
2019-04-01T08:23:06.730Z,40.55
2019-04-01T08:24:10.336Z,41.18
2019-04-01T08:25:13.922Z,41.75
2019-04-01T08:26:17.487Z,41.75
2019-04-01T08:27:21.127Z,40.88
2019-04-01T08:28:24.727Z,42.10
2019-04-01T08:29:30.572Z,40.63
2019-04-01T08:30:33.736Z,40.85
2019-04-01T08:31:37.411Z,40.43
2019-04-01T08:32:40.913Z,42.45
2019-04-01T08:33:44.641Z,40.20
2019-04-01T08:34:48.102Z,40.95
2019-04-01T08:35:51.632Z,39.75
2019-04-01T08:36:55.171Z,39.75
2019-04-01T08:37:58.669Z,40.65
2019-04-01T08:39:02.248Z,40.38
2019-04-01T08:40:06.862Z,41.18
2019-04-01T08:41:10.656Z,40.25
2019-04-01T08:42:14.327Z,38.92
2019-04-01T08:43:17.844Z,40.23
2019-04-01T08:44:21.281Z,37.05
2019-04-01T08:45:24.735Z,39.30
2019-04-01T08:46:28.303Z,38.17
2019-04-01T08:47:31.877Z,38.17
2019-04-01T08:48:35.824Z,37.75
2019-04-01T08:49:39.266Z,38.17
2019-04-01T08:50:42.876Z,37.78
2019-04-01T08:51:46.447Z,38.65
2019-04-01T08:52:49.946Z,39.00
2019-04-01T08:53:53.526Z,37.30
2019-04-01T08:54:57.038Z,38.75
2019-04-01T08:56:01.359Z,37.25
2019-04-01T08:57:05.118Z,38.60
2019-04-01T08:58:08.832Z,36.83
2019-04-01T08:59:12.810Z,39.13
2019-04-01T09:00:16.596Z,38.92
2019-04-01T09:01:34.209Z,38.42
2019-04-01T09:02:25.445Z,37.55
2019-04-01T09:03:29.018Z,39.08
2019-04-01T09:04:32.521Z,39.50
2019-04-01T09:05:35.993Z,38.83
2019-04-01T09:06:39.448Z,39.00
2019-04-01T09:07:42.951Z,38.08
2019-04-01T09:08:48.022Z,37.85
2019-04-01T09:09:51.703Z,38.25
2019-04-01T09:10:55.354Z,38.60
2019-04-01T09:11:59.950Z,40.55
2019-04-01T09:13:03.658Z,39.40
2019-04-01T09:14:07.164Z,39.15
2019-04-01T09:15:11.832Z,39.00
2019-04-01T09:16:16.209Z,38.80
2019-04-01T09:17:19.936Z,39.35
2019-04-01T09:18:23.371Z,38.20
2019-04-01T09:19:26.979Z,38.13
2019-04-01T09:20:30.397Z,37.58
2019-04-01T09:21:33.836Z,39.50
2019-04-01T09:22:37.432Z,38.20
2019-04-01T09:23:40.883Z,37.00
2019-04-01T09:24:44.373Z,37.55
2019-04-01T09:25:47.931Z,36.05
2019-04-01T09:26:51.448Z,36.20
2019-04-01T09:27:54.982Z,38.92
2019-04-01T09:28:58.611Z,38.20
2019-04-01T09:30:02.121Z,38.45
2019-04-01T09:31:05.620Z,38.42
2019-04-01T09:32:09.249Z,37.25
2019-04-01T09:33:12.785Z,38.08
2019-04-01T09:34:16.229Z,38.00
2019-04-01T09:35:19.752Z,38.02
2019-04-01T09:36:23.254Z,38.73
2019-04-01T09:37:26.761Z,38.65
2019-04-01T09:38:30.378Z,38.10
2019-04-01T09:39:33.809Z,36.55
2019-04-01T09:40:37.393Z,38.00
2019-04-01T09:41:41.076Z,38.48
2019-04-01T09:42:44.514Z,37.70
2019-04-01T09:43:48.224Z,37.17
2019-04-01T09:44:51.797Z,37.50
2019-04-01T09:45:55.321Z,45.20
2019-04-01T09:46:58.763Z,36.60
2019-04-01T09:48:02.220Z,38.83
2019-04-01T09:49:06.069Z,38.10
2019-04-01T09:50:09.637Z,36.28
2019-04-01T09:51:13.210Z,47.33
2019-04-01T09:52:16.653Z,66.77
2019-04-01T09:53:20.108Z,50.80
2019-04-01T09:54:23.544Z,37.48
2019-04-01T09:55:26.986Z,37.53
2019-04-01T09:56:30.493Z,36.85
2019-04-01T09:57:33.996Z,36.73
2019-04-01T09:58:37.448Z,37.25
2019-04-01T09:59:40.893Z,38.53
2019-04-01T10:00:46.917Z,36.73
2019-04-01T10:01:50.431Z,38.08
2019-04-01T10:02:53.873Z,37.50
2019-04-01T10:03:57.404Z,36.48
2019-04-01T10:05:00.846Z,38.10
2019-04-01T10:06:04.420Z,39.60
2019-04-01T10:07:07.936Z,35.28
2019-04-01T10:08:11.471Z,37.55
2019-04-01T10:09:14.996Z,37.35
2019-04-01T10:10:18.569Z,36.63
2019-04-01T10:11:22.074Z,37.17
2019-04-01T10:12:25.519Z,37.40
2019-04-01T10:13:29.519Z,36.23
2019-04-01T10:14:32.989Z,38.28
2019-04-01T10:15:36.424Z,38.33
2019-04-01T10:16:39.861Z,37.23
2019-04-01T10:17:43.572Z,38.20
2019-04-01T10:18:47.094Z,38.40
2019-04-01T10:19:50.620Z,37.85
2019-04-01T10:20:54.106Z,37.50
2019-04-01T10:21:57.609Z,38.08
2019-04-01T10:23:01.110Z,38.80
2019-04-01T10:24:04.707Z,36.93
2019-04-01T10:25:08.372Z,39.13
2019-04-01T10:26:12.014Z,38.38
2019-04-01T10:27:15.548Z,37.33
2019-04-01T10:28:19.032Z,39.50
2019-04-01T10:29:22.539Z,39.78
2019-04-01T10:30:26.443Z,39.55
2019-04-01T10:31:29.943Z,40.35
2019-04-01T10:32:33.377Z,37.85
2019-04-01T10:33:36.895Z,39.78
2019-04-01T10:34:40.405Z,38.95
2019-04-01T10:35:43.865Z,38.48
2019-04-01T10:36:47.457Z,37.93
2019-04-01T10:37:51.013Z,38.55
2019-04-01T10:38:54.518Z,37.13
2019-04-01T10:40:00.149Z,39.80
2019-04-01T10:41:03.370Z,39.38
2019-04-01T10:42:06.842Z,37.88
2019-04-01T10:43:10.495Z,39.00
2019-04-01T10:44:14.015Z,37.85
2019-04-01T10:45:17.775Z,39.03
2019-04-01T10:49:00.337Z,38.02
2019-04-01T10:50:04.998Z,36.53
2019-04-01T10:51:08.471Z,37.35
2019-04-01T10:52:11.947Z,38.50
2019-04-01T10:53:15.488Z,38.85
2019-04-01T10:54:18.988Z,39.60
2019-04-01T10:55:22.466Z,40.45
2019-04-01T10:56:25.923Z,41.25
2019-04-01T10:57:29.456Z,39.83
2019-04-01T10:58:32.977Z,65.40
2019-04-01T10:59:36.515Z,38.63
2019-04-01T11:00:40.098Z,37.70
2019-04-01T11:01:43.546Z,43.63
2019-04-01T11:02:49.816Z,40.33
2019-04-01T11:03:52.436Z,37.75
2019-04-01T11:04:56.031Z,38.50
2019-04-01T11:05:59.548Z,38.45
2019-04-01T11:07:03.106Z,38.33
2019-04-01T11:08:06.651Z,39.45
2019-04-01T11:09:11.177Z,36.33
2019-04-01T11:10:15.707Z,38.02
2019-04-01T11:11:19.166Z,36.93
2019-04-01T11:12:22.671Z,36.60
2019-04-01T11:13:26.100Z,35.60
2019-04-01T11:14:29.542Z,38.73
2019-04-01T11:15:33.118Z,37.85
2019-04-01T11:16:36.638Z,35.25
2019-04-01T11:17:40.077Z,37.08
2019-04-01T11:18:43.508Z,38.85
2019-04-01T11:19:47.012Z,38.53
2019-04-01T11:20:50.450Z,37.15
2019-04-01T11:21:53.909Z,36.88
2019-04-01T11:22:57.431Z,35.85
2019-04-01T11:24:02.037Z,36.90
2019-04-01T11:25:07.383Z,37.15
2019-04-01T11:26:11.097Z,37.75
2019-04-01T11:27:14.568Z,36.83
2019-04-01T11:28:18.008Z,35.90
2019-04-01T11:29:21.515Z,36.98
2019-04-01T11:30:25.091Z,35.68
2019-04-01T11:31:28.590Z,36.45
2019-04-01T11:32:32.076Z,37.63
2019-04-01T11:33:35.686Z,38.73
2019-04-01T11:34:39.106Z,36.65
2019-04-01T11:35:42.592Z,35.00
2019-04-01T11:36:46.075Z,37.67
2019-04-01T11:37:49.630Z,35.13
2019-04-01T11:38:53.120Z,35.50
2019-04-01T11:39:56.660Z,37.42
2019-04-01T11:41:00.113Z,36.13
2019-04-01T11:42:03.649Z,34.78
2019-04-01T11:43:07.084Z,34.27
2019-04-01T11:44:10.640Z,34.70
2019-04-01T11:45:14.149Z,34.67
2019-04-01T11:46:17.818Z,34.33
2019-04-01T11:47:22.273Z,34.38
2019-04-01T11:48:25.918Z,35.43
2019-04-01T11:49:29.396Z,34.95
2019-04-01T11:50:32.875Z,33.60
2019-04-01T11:51:39.768Z,34.80
2019-04-01T11:52:41.581Z,33.08
2019-04-01T11:53:45.193Z,32.33
2019-04-01T11:54:48.686Z,34.65
2019-04-01T11:55:52.200Z,34.20
2019-04-01T11:56:55.638Z,32.05
2019-04-01T11:57:59.137Z,33.90
2019-04-01T11:59:02.666Z,33.05
2019-04-01T12:00:12.676Z,32.17
2019-04-01T12:01:15.413Z,41.48
2019-04-01T12:02:18.916Z,38.25
2019-04-01T12:03:22.363Z,47.67
2019-04-01T12:04:25.880Z,37.48
2019-04-01T12:05:29.391Z,44.03
2019-04-01T12:06:32.843Z,34.27
2019-04-01T12:07:36.414Z,37.93
2019-04-01T12:08:39.995Z,32.70
2019-04-01T12:09:43.448Z,31.55
2019-04-01T12:10:46.889Z,30.80
2019-04-01T12:11:50.381Z,31.65
2019-04-01T12:12:53.812Z,32.08
2019-04-01T12:13:57.349Z,29.75
2019-04-01T12:15:00.868Z,30.55
2019-04-01T12:16:04.440Z,29.57
2019-04-01T12:17:07.877Z,30.82
2019-04-01T12:18:11.312Z,30.45
2019-04-01T12:19:18.091Z,31.45
2019-04-01T12:20:20.057Z,31.35
2019-04-01T12:21:23.490Z,30.00
2019-04-01T12:22:26.927Z,29.72
2019-04-01T12:23:30.435Z,30.23
2019-04-01T12:24:34.264Z,28.30
2019-04-01T12:25:38.448Z,28.45
2019-04-01T12:26:42.678Z,28.85
2019-04-01T12:27:46.121Z,29.05
2019-04-01T12:28:49.633Z,29.87
2019-04-01T12:29:53.461Z,29.70
2019-04-01T12:30:56.898Z,27.02
2019-04-01T12:32:00.354Z,29.82
2019-04-01T12:33:03.937Z,26.85
2019-04-01T12:34:07.489Z,28.77
2019-04-01T12:35:11.095Z,29.15
2019-04-01T12:36:14.605Z,28.87
2019-04-01T12:37:18.124Z,28.55
2019-04-01T12:38:21.644Z,28.95
2019-04-01T12:39:25.143Z,27.05
2019-04-01T12:40:28.602Z,28.95
2019-04-01T12:41:32.122Z,29.45
2019-04-01T12:42:35.650Z,31.68
2019-04-01T12:43:39.107Z,30.37
2019-04-01T12:44:42.531Z,28.50
2019-04-01T12:45:46.139Z,28.07
2019-04-01T12:46:49.653Z,26.70
2019-04-01T12:47:53.082Z,25.17
2019-04-01T12:48:56.523Z,24.80
2019-04-01T12:50:00.044Z,26.37
2019-04-01T12:51:03.643Z,27.23
2019-04-01T12:52:07.145Z,28.30
2019-04-01T12:53:10.590Z,27.63
2019-04-01T12:54:15.255Z,27.73
2019-04-01T12:55:18.899Z,25.80
2019-04-01T12:56:22.354Z,25.73
2019-04-01T12:57:25.805Z,27.13
2019-04-01T12:58:29.239Z,28.77
2019-04-01T12:59:32.683Z,28.20
2019-04-01T13:00:36.115Z,27.60
2019-04-01T13:01:39.572Z,27.47
2019-04-01T13:02:43.079Z,28.53
2019-04-01T13:03:46.525Z,25.87
2019-04-01T13:04:51.518Z,25.70
2019-04-01T13:05:55.066Z,23.40
2019-04-01T13:06:58.592Z,25.97
2019-04-01T13:08:02.143Z,28.37
2019-04-01T13:09:07.821Z,26.10
2019-04-01T13:10:11.619Z,26.20
2019-04-01T13:11:15.089Z,24.20
2019-04-01T13:12:18.548Z,26.20
2019-04-01T13:13:22.809Z,27.27
2019-04-01T13:14:26.448Z,24.67
2019-04-01T13:15:29.987Z,24.70
2019-04-01T13:16:33.484Z,22.50
2019-04-01T13:17:36.939Z,23.13
2019-04-01T13:18:40.371Z,22.83
2019-04-01T13:19:44.867Z,24.33
2019-04-01T13:20:51.484Z,22.13
2019-04-01T13:21:53.748Z,23.97
2019-04-01T13:22:57.286Z,25.27
2019-04-01T13:24:00.781Z,25.20
2019-04-01T13:25:05.735Z,24.30
2019-04-01T13:26:09.326Z,24.93
2019-04-01T13:27:12.779Z,23.60
2019-04-01T13:28:16.343Z,22.80
2019-04-01T13:29:19.896Z,25.07
2019-04-01T13:30:24.285Z,23.37
2019-04-01T13:31:28.471Z,21.70
2019-04-01T13:32:31.952Z,23.57
2019-04-01T13:33:35.476Z,24.80
2019-04-01T13:34:38.974Z,23.57
2019-04-01T13:35:42.418Z,23.70
2019-04-01T13:36:45.835Z,24.13
2019-04-01T13:37:49.352Z,23.00
2019-04-01T13:38:52.798Z,23.50
2019-04-01T13:39:56.371Z,22.47
2019-04-01T13:41:00.055Z,23.90
2019-04-01T13:42:03.449Z,23.40
2019-04-01T13:43:07.035Z,25.77